Time;durP1;ratioP1;P1;durP2;ratioP2;P2;SDS_P1;SDS_P2;PMS_P1;PMS_P2;Temp;Humidity;BMP_temperature;BMP_pressure;BME280_temperature;BME280_humidity;BME280_pressure;Samples;Min_cycle;Max_cycle;Signal;HPM_P1;HPM_P2
2022/07/05 00:00:51;;;;;;;;;;;;;;;;;;2140513;27;20391;-44
2022/07/05 00:01:51;;;;;;;;;;;;;;;;;;2140664;27;20013;-44
2022/07/05 00:02:52;;;;;;;;;;;;;;;;;;2140607;27;20332;-44
2022/07/05 00:03:53;;;;;;;;;;;;;;;;;;2140767;27;19970;-44
2022/07/05 00:04:54;;;;;;;;;;;;;;;;;;2140468;27;19934;-45
2022/07/05 00:05:55;;;;;;;;;;;;;;;;;;2140427;27;19922;-44
2022/07/05 00:08:15;;;;;;;;;;;;;;;;;;2140462;27;19929;-46
2022/07/05 00:09:16;;;;;;;;;;;;;;;;;;2140637;27;19922;-45
2022/07/05 00:10:17;;;;;;;;;;;;;;;;;;2140561;27;19929;-42
2022/07/05 00:11:18;;;;;;;;;;;;;;;;;;2136882;27;20022;-42
2022/07/05 00:12:19;;;;;;;;;;;;;;;;;;2131824;27;20332;-43
2022/07/05 00:13:21;;;;;;;;;;;;;;;;;;2131764;27;20339;-43
2022/07/05 00:14:22;;;;;;;;;;;;;;;;;;2131835;27;20499;-43
2022/07/05 00:15:23;;;;;;;;;;;;;;;;;;2131907;27;20226;-43
2022/07/05 00:16:24;;;;;;;;;;;;;;;;;;2131666;27;19979;-43
2022/07/05 00:17:25;;;;;;;;;;;;;;;;;;2131758;27;19950;-43
2022/07/05 00:18:26;;;;;;;;;;;;;;;;;;2131801;27;19923;-42
2022/07/05 00:19:27;;;;;;;;;;;;;;;;;;2131877;27;20383;-43
2022/07/05 00:20:28;;;;;;;;;;;;;;;;;;2131805;27;19923;-42
2022/07/05 00:21:28;;;;;;;;;;;;;;;;;;2131744;27;20436;-42
2022/07/05 00:22:29;;;;;;;;;;;;;;;;;;2131822;27;19930;-42
2022/07/05 00:23:30;;;;;;;;;;;;;;;;;;2131757;27;20383;-42
2022/07/05 00:24:31;;;;;;;;;;;;;;;;;;2131947;27;20022;-42
2022/07/05 00:25:32;;;;;;;;;;;;;;;;;;2131738;27;20015;-43
2022/07/05 00:26:33;;;;;;;;;;;;;;;;;;2132230;27;19927;-44
2022/07/05 00:27:34;;;;;;;;;;;;;;;;;;2131109;27;19933;-43
2022/07/05 00:28:35;;;;;;;;;;;;;;;;;;2131671;27;20014;-43
2022/07/05 00:29:36;;;;;;;;;;;;;;;;;;2131713;27;19923;-43
2022/07/05 00:30:37;;;;;;;;;;;;;;;;;;2135857;27;20378;-45
2022/07/05 00:31:38;;;;;;;;;;;;;;;;;;2140234;27;19975;-45
2022/07/05 00:32:39;;;;;;;;;;;;;;;;;;2140279;27;19930;-44
2022/07/05 00:33:39;;;;;;;;;;;;;;;;;;2140322;27;20427;-44
2022/07/05 00:34:40;;;;;;;;;;;;;;;;;;2140332;27;19922;-44
2022/07/05 00:35:42;;;;;;;;;;;;;;;;;;2140464;27;19922;-45
2022/07/05 00:36:43;;;;;;;;;;;;;;;;;;2140376;27;19974;-45
2022/07/05 00:37:43;;;;;;;;;;;;;;;;;;2140258;27;20083;-45
2022/07/05 00:38:44;;;;;;;;;;;;;;;;;;2140328;27;20021;-45
2022/07/05 00:39:45;;;;;;;;;;;;;;;;;;2140256;27;19979;-44
2022/07/05 00:40:47;;;;;;;;;;;;;;;;;;2140324;27;20311;-45
2022/07/05 00:41:47;;;;;;;;;;;;;;;;;;2140231;27;19922;-44
2022/07/05 00:42:48;;;;;;;;;;;;;;;;;;2140493;27;19929;-44
2022/07/05 00:43:49;;;;;;;;;;;;;;;;;;2140310;27;19962;-45
2022/07/05 00:44:50;;;;;;;;;;;;;;;;;;2140540;27;20411;-43
2022/07/05 00:45:51;;;;;;;;;;;;;;;;;;2140272;27;19931;-43
2022/07/05 00:46:52;;;;;;;;;;;;;;;;;;2140296;27;19975;-43
2022/07/05 00:47:53;;;;;;;;;;;;;;;;;;2140336;27;19923;-43
2022/07/05 00:48:53;;;;;;;;;;;;;;;;;;2140400;27;20001;-44
2022/07/05 00:49:54;;;;;;;;;;;;;;;;;;2140051;27;20446;-43
2022/07/05 00:50:55;;;;;;;;;;;;;;;;;;2140086;27;19923;-43
2022/07/05 00:51:56;;;;;;;;;;;;;;;;;;2140210;27;20382;-42
2022/07/05 00:53:17;;;;;;;;;;;;;;;;;;2140214;27;19923;-44
2022/07/05 00:54:18;;;;;;;;;;;;;;;;;;2140273;27;20017;-43
2022/07/05 00:55:19;;;;;;;;;;;;;;;;;;2140259;27;19930;-43
2022/07/05 00:56:20;;;;;;;;;;;;;;;;;;2140373;27;20013;-44
2022/07/05 00:57:21;;;;;;;;;;;;;;;;;;2140233;27;20005;-44
2022/07/05 00:58:22;;;;;;;;;;;;;;;;;;2140384;27;19965;-43
2022/07/05 00:59:23;;;;;;;;;;;;;;;;;;2140438;27;19954;-43
2022/07/05 01:00:24;;;;;;;;;;;;;;;;;;2140351;27;20010;-44
2022/07/05 01:01:24;;;;;;;;;;;;;;;;;;2140198;27;20303;-43
2022/07/05 01:02:25;;;;;;;;;;;;;;;;;;2140073;27;20229;-43
2022/07/05 01:03:27;;;;;;;;;;;;;;;;;;2140201;27;20367;-43
2022/07/05 01:04:28;;;;;;;;;;;;;;;;;;2140145;27;20077;-43
2022/07/05 01:05:29;;;;;;;;;;;;;;;;;;2140293;27;20348;-42
2022/07/05 01:06:30;;;;;;;;;;;;;;;;;;2140111;27;19962;-43
2022/07/05 01:07:30;;;;;;;;;;;;;;;;;;2140260;27;19981;-43
2022/07/05 01:08:31;;;;;;;;;;;;;;;;;;2140507;27;19930;-42
2022/07/05 01:09:32;;;;;;;;;;;;;;;;;;2140452;27;20055;-43
2022/07/05 01:10:33;;;;;;;;;;;;;;;;;;2140207;27;20336;-44
2022/07/05 01:11:34;;;;;;;;;;;;;;;;;;2134121;27;20508;-42
2022/07/05 01:12:35;;;;;;;;;;;;;;;;;;2131467;27;19967;-42
2022/07/05 01:13:36;;;;;;;;;;;;;;;;;;2131811;27;20009;-44
2022/07/05 01:14:37;;;;;;;;;;;;;;;;;;2131408;27;20010;-45
2022/07/05 01:15:38;;;;;;;;;;;;;;;;;;2131453;27;20032;-45
2022/07/05 01:16:38;;;;;;;;;;;;;;;;;;2131541;27;19957;-45
2022/07/05 01:17:39;;;;;;;;;;;;;;;;;;2131385;27;19923;-44
2022/07/05 01:18:40;;;;;;;;;;;;;;;;;;2131460;27;19991;-44
2022/07/05 01:19:41;;;;;;;;;;;;;;;;;;2131678;27;19951;-45
2022/07/05 01:20:42;;;;;;;;;;;;;;;;;;2131514;27;19930;-45
2022/07/05 01:21:43;;;;;;;;;;;;;;;;;;2131431;27;19975;-44
2022/07/05 01:22:44;;;;;;;;;;;;;;;;;;2131554;27;20021;-44
2022/07/05 01:23:45;;;;;;;;;;;;;;;;;;2131480;27;19960;-44
2022/07/05 01:24:45;;;;;;;;;;;;;;;;;;2131580;27;20065;-43
2022/07/05 01:25:47;;;;;;;;;;;;;;;;;;2131565;27;19923;-42
2022/07/05 01:26:47;;;;;;;;;;;;;;;;;;2134717;27;20399;-43
2022/07/05 01:27:48;;;;;;;;;;;;;;;;;;2140244;27;19966;-44
2022/07/05 01:28:49;;;;;;;;;;;;;;;;;;2140035;27;20067;-45
2022/07/05 01:29:50;;;;;;;;;;;;;;;;;;2140015;27;20394;-44
2022/07/05 01:30:51;;;;;;;;;;;;;;;;;;2139900;27;19927;-45
2022/07/05 01:31:52;;;;;;;;;;;;;;;;;;2140391;27;19930;-43
2022/07/05 01:32:53;;;;;;;;;;;;;;;;;;2139933;27;20018;-43
2022/07/05 01:33:54;;;;;;;;;;;;;;;;;;2140021;27;20217;-43
2022/07/05 01:34:54;;;;;;;;;;;;;;;;;;2140052;27;20004;-44
2022/07/05 01:35:55;;;;;;;;;;;;;;;;;;2139875;27;19939;-43
2022/07/05 01:36:56;;;;;;;;;;;;;;;;;;2139978;27;20364;-44
2022/07/05 01:37:57;;;;;;;;;;;;;;;;;;2140192;27;19929;-43
2022/07/05 01:38:58;;;;;;;;;;;;;;;;;;2140838;27;20320;-45
2022/07/05 01:39:59;;;;;;;;;;;;;;;;;;2141451;27;19923;-43
2022/07/05 01:41:00;;;;;;;;;;;;;;;;;;2141402;27;20017;-43
2022/07/05 01:42:01;;;;;;;;;;;;;;;;;;2141445;27;19923;-43
2022/07/05 01:43:01;;;;;;;;;;;;;;;;;;2141618;27;20051;-43
2022/07/05 01:44:03;;;;;;;;;;;;;;;;;;2141608;27;20409;-43
2022/07/05 01:45:03;;;;;;;;;;;;;;;;;;2141784;27;19923;-44
2022/07/05 01:46:04;;;;;;;;;;;;;;;;;;2141400;27;19971;-43
2022/07/05 01:47:05;;;;;;;;;;;;;;;;;;2141368;27;19923;-43
2022/07/05 01:48:06;;;;;;;;;;;;;;;;;;2141469;27;20005;-44
2022/07/05 01:49:07;;;;;;;;;;;;;;;;;;2141430;27;19922;-43
2022/07/05 01:50:08;;;;;;;;;;;;;;;;;;2141555;27;20375;-45
2022/07/05 01:51:08;;;;;;;;;;;;;;;;;;2141319;27;20041;-44
2022/07/05 01:52:10;;;;;;;;;;;;;;;;;;2141589;27;19946;-45
2022/07/05 01:53:10;;;;;;;;;;;;;;;;;;2141669;27;19927;-44
2022/07/05 01:54:11;;;;;;;;;;;;;;;;;;2141340;27;20371;-45
2022/07/05 01:55:12;;;;;;;;;;;;;;;;;;2141768;27;20367;-43
2022/07/05 01:56:13;;;;;;;;;;;;;;;;;;2141301;27;19927;-43
2022/07/05 01:57:14;;;;;;;;;;;;;;;;;;2141290;27;19934;-43
2022/07/05 01:58:15;;;;;;;;;;;;;;;;;;2141526;27;19970;-43
2022/07/05 01:59:15;;;;;;;;;;;;;;;;;;2141896;27;20252;-44
2022/07/05 02:00:17;;;;;;;;;;;;;;;;;;2141265;27;19929;-45
2022/07/05 02:01:18;;;;;;;;;;;;;;;;;;2141469;27;20001;-46
2022/07/05 02:02:19;;;;;;;;;;;;;;;;;;2141389;27;19930;-44
2022/07/05 02:03:21;;;;;;;;;;;;;;;;;;2141276;27;20367;-45
2022/07/05 02:04:42;;;;;;;;;;;;;;;;;;2141217;27;20348;-46
2022/07/05 02:05:43;;;;;;;;;;;;;;;;;;2141427;27;19930;-45
2022/07/05 02:06:45;;;;;;;;;;;;;;;;;;2141472;27;19971;-43
2022/07/05 02:07:45;;;;;;;;;;;;;;;;;;2141495;27;19990;-43
2022/07/05 02:08:48;;;;;;;;;;;;;;;;;;2141674;27;20268;-42
2022/07/05 02:09:49;;;;;;;;;;;;;;;;;;2141307;27;20446;-43
2022/07/05 02:10:50;;;;;;;;;;;;;;;;;;2141442;27;19923;-43
2022/07/05 02:11:51;;;;;;;;;;;;;;;;;;2133064;27;20017;-44
2022/07/05 02:12:52;;;;;;;;;;;;;;;;;;2132737;27;19976;-43
2022/07/05 02:13:53;;;;;;;;;;;;;;;;;;2132877;27;19930;-45
2022/07/05 02:14:54;;;;;;;;;;;;;;;;;;2132753;27;20030;-44
2022/07/05 02:15:55;;;;;;;;;;;;;;;;;;2132608;27;19923;-44
2022/07/05 02:16:56;;;;;;;;;;;;;;;;;;2132768;27;19986;-45
2022/07/05 02:17:57;;;;;;;;;;;;;;;;;;2132598;27;20597;-45
2022/07/05 02:18:58;;;;;;;;;;;;;;;;;;2132773;27;19965;-45
2022/07/05 02:19:59;;;;;;;;;;;;;;;;;;2132913;27;20006;-44
2022/07/05 02:21:00;;;;;;;;;;;;;;;;;;2132647;27;19923;-43
2022/07/05 02:22:01;;;;;;;;;;;;;;;;;;2132758;27;19998;-43
2022/07/05 02:23:02;;;;;;;;;;;;;;;;;;2135930;27;19965;-44
2022/07/05 02:24:03;;;;;;;;;;;;;;;;;;2141033;27;19923;-44
2022/07/05 02:25:04;;;;;;;;;;;;;;;;;;2141281;27;20021;-43
2022/07/05 02:26:05;;;;;;;;;;;;;;;;;;2141230;27;20000;-43
2022/07/05 02:27:05;;;;;;;;;;;;;;;;;;2141198;27;20376;-43
2022/07/05 02:28:06;;;;;;;;;;;;;;;;;;2141559;27;20011;-44
2022/07/05 02:29:07;;;;;;;;;;;;;;;;;;2141258;27;20374;-43
2022/07/05 02:30:08;;;;;;;;;;;;;;;;;;2141109;27;19929;-43
2022/07/05 02:31:09;;;;;;;;;;;;;;;;;;2141458;27;19927;-43
2022/07/05 02:32:10;;;;;;;;;;;;;;;;;;2141084;27;19923;-44
2022/07/05 02:33:11;;;;;;;;;;;;;;;;;;2141231;27;19923;-43
2022/07/05 02:34:12;;;;;;;;;;;;;;;;;;2141333;27;20390;-43
2022/07/05 02:35:12;;;;;;;;;;;;;;;;;;2141226;27;19961;-43
2022/07/05 02:36:13;;;;;;;;;;;;;;;;;;2141148;27;19923;-44
2022/07/05 02:37:14;;;;;;;;;;;;;;;;;;2141207;27;19934;-43
2022/07/05 02:38:15;;;;;;;;;;;;;;;;;;2141075;27;19926;-43
2022/07/05 02:39:16;;;;;;;;;;;;;;;;;;2141229;27;19923;-44
2022/07/05 02:40:17;;;;;;;;;;;;;;;;;;2141191;27;19970;-43
2022/07/05 02:41:17;;;;;;;;;;;;;;;;;;2141207;27;19923;-46
2022/07/05 02:42:19;;;;;;;;;;;;;;;;;;2141140;27;19923;-47
2022/07/05 02:43:19;;;;;;;;;;;;;;;;;;2141476;27;20386;-44
2022/07/05 02:44:20;;;;;;;;;;;;;;;;;;2141258;27;19969;-43
2022/07/05 02:45:21;;;;;;;;;;;;;;;;;;2141324;27;20017;-43
2022/07/05 02:46:22;;;;;;;;;;;;;;;;;;2141353;27;20006;-43
2022/07/05 02:47:23;;;;;;;;;;;;;;;;;;2140756;27;19922;-42
2022/07/05 02:48:24;;;;;;;;;;;;;;;;;;2141199;27;19930;-44
2022/07/05 02:49:25;;;;;;;;;;;;;;;;;;2141095;27;20021;-44
2022/07/05 02:50:26;;;;;;;;;;;;;;;;;;2140330;27;19922;-43
2022/07/05 02:51:27;;;;;;;;;;;;;;;;;;2141017;27;20002;-43
2022/07/05 02:52:28;;;;;;;;;;;;;;;;;;2140978;27;19922;-45
2022/07/05 02:53:28;;;;;;;;;;;;;;;;;;2141303;27;20005;-43
2022/07/05 02:54:29;;;;;;;;;;;;;;;;;;2141327;27;20339;-46
2022/07/05 02:55:30;;;;;;;;;;;;;;;;;;2141197;27;20551;-45
2022/07/05 02:56:31;;;;;;;;;;;;;;;;;;2140941;27;19923;-46
2022/07/05 02:57:32;;;;;;;;;;;;;;;;;;2141048;27;20295;-45
2022/07/05 02:58:33;;;;;;;;;;;;;;;;;;2141059;27;19923;-46
2022/07/05 02:59:33;;;;;;;;;;;;;;;;;;2141283;27;20394;-45
2022/07/05 03:00:35;;;;;;;;;;;;;;;;;;2141158;27;19952;-45
2022/07/05 03:01:35;;;;;;;;;;;;;;;;;;2141011;27;19930;-45
2022/07/05 03:02:36;;;;;;;;;;;;;;;;;;2140890;27;19923;-45
2022/07/05 03:03:37;;;;;;;;;;;;;;;;;;2140986;27;20359;-45
2022/07/05 03:04:38;;;;;;;;;;;;;;;;;;2140929;27;19965;-47
2022/07/05 03:05:39;;;;;;;;;;;;;;;;;;2140869;27;19923;-45
2022/07/05 03:06:40;;;;;;;;;;;;;;;;;;2140924;27;19937;-46
2022/07/05 03:07:41;;;;;;;;;;;;;;;;;;2140962;27;19923;-44
2022/07/05 03:08:42;;;;;;;;;;;;;;;;;;2141032;27;20013;-46
2022/07/05 03:09:43;;;;;;;;;;;;;;;;;;2140994;27;19923;-45
2022/07/05 03:10:44;;;;;;;;;;;;;;;;;;2140922;27;19923;-45
2022/07/05 03:11:45;;;;;;;;;;;;;;;;;;2140736;27;19927;-45
2022/07/05 03:12:46;;;;;;;;;;;;;;;;;;2140974;27;19927;-43
2022/07/05 03:13:47;;;;;;;;;;;;;;;;;;2140790;27;20299;-44
2022/07/05 03:14:48;;;;;;;;;;;;;;;;;;2140946;27;19956;-43
2022/07/05 03:15:49;;;;;;;;;;;;;;;;;;2140880;27;19923;-46
2022/07/05 03:16:50;;;;;;;;;;;;;;;;;;2140729;27;20283;-45
2022/07/05 03:17:51;;;;;;;;;;;;;;;;;;2140935;27;19976;-44
2022/07/05 03:18:52;;;;;;;;;;;;;;;;;;2140666;27;20295;-43
2022/07/05 03:19:53;;;;;;;;;;;;;;;;;;2140754;27;20371;-43
2022/07/05 03:20:54;;;;;;;;;;;;;;;;;;2140696;27;19926;-44
2022/07/05 03:21:55;;;;;;;;;;;;;;;;;;2140978;27;19933;-45
2022/07/05 03:22:56;;;;;;;;;;;;;;;;;;2140849;27;19930;-45
2022/07/05 03:23:57;;;;;;;;;;;;;;;;;;2140717;27;20271;-47
2022/07/05 03:24:58;;;;;;;;;;;;;;;;;;2140876;27;19929;-45
2022/07/05 03:25:59;;;;;;;;;;;;;;;;;;2140938;27;19977;-45
2022/07/05 03:27:00;;;;;;;;;;;;;;;;;;2141110;27;20298;-43
2022/07/05 03:28:01;;;;;;;;;;;;;;;;;;2140878;27;19926;-46
2022/07/05 03:29:02;;;;;;;;;;;;;;;;;;2140929;27;20333;-45
2022/07/05 03:30:02;;;;;;;;;;;;;;;;;;2140822;27;19930;-45
2022/07/05 03:31:03;;;;;;;;;;;;;;;;;;2140562;27;19923;-45
2022/07/05 03:32:04;;;;;;;;;;;;;;;;;;2140800;27;19933;-44
2022/07/05 03:33:05;;;;;;;;;;;;;;;;;;2140849;27;20010;-46
2022/07/05 03:34:06;;;;;;;;;;;;;;;;;;2140963;27;19930;-44
2022/07/05 03:35:07;;;;;;;;;;;;;;;;;;2140769;27;20294;-43
2022/07/05 03:36:08;;;;;;;;;;;;;;;;;;2140809;27;19968;-43
2022/07/05 03:37:09;;;;;;;;;;;;;;;;;;2140820;27;19930;-45
2022/07/05 03:38:10;;;;;;;;;;;;;;;;;;2140720;27;19984;-45
2022/07/05 03:39:12;;;;;;;;;;;;;;;;;;2140689;27;19968;-45
2022/07/05 03:40:13;;;;;;;;;;;;;;;;;;2140851;27;19923;-43
2022/07/05 03:41:14;;;;;;;;;;;;;;;;;;2140573;27;19923;-43
2022/07/05 03:42:15;;;;;;;;;;;;;;;;;;2140849;27;19927;-42
2022/07/05 03:43:16;;;;;;;;;;;;;;;;;;2140835;27;20348;-43
2022/07/05 03:44:16;;;;;;;;;;;;;;;;;;2140841;27;19923;-45
2022/07/05 03:45:17;;;;;;;;;;;;;;;;;;2140802;27;19923;-44
2022/07/05 03:46:18;;;;;;;;;;;;;;;;;;2140588;27;19968;-44
2022/07/05 03:47:19;;;;;;;;;;;;;;;;;;2140814;27;19923;-44
2022/07/05 03:48:20;;;;;;;;;;;;;;;;;;2140619;27;19923;-44
2022/07/05 03:49:41;;;;;;;;;;;;;;;;;;2140657;27;19923;-44
2022/07/05 03:50:42;;;;;;;;;;;;;;;;;;2140592;27;19930;-44
2022/07/05 03:51:43;;;;;;;;;;;;;;;;;;2140679;27;19922;-44
2022/07/05 03:52:44;;;;;;;;;;;;;;;;;;2140786;27;19922;-43
2022/07/05 03:53:45;;;;;;;;;;;;;;;;;;2140575;27;19923;-43
2022/07/05 03:54:46;;;;;;;;;;;;;;;;;;2140563;27;20364;-43
2022/07/05 03:55:47;;;;;;;;;;;;;;;;;;2140674;27;19971;-44
2022/07/05 03:56:48;;;;;;;;;;;;;;;;;;2140578;27;19968;-43
2022/07/05 03:57:49;;;;;;;;;;;;;;;;;;2140580;27;19973;-43
2022/07/05 03:58:49;;;;;;;;;;;;;;;;;;2140710;27;19923;-44
2022/07/05 03:59:50;;;;;;;;;;;;;;;;;;2140567;27;20009;-43
2022/07/05 04:00:51;;;;;;;;;;;;;;;;;;2140817;27;19927;-43
2022/07/05 04:01:52;;;;;;;;;;;;;;;;;;2140082;27;19922;-43
2022/07/05 04:02:53;;;;;;;;;;;;;;;;;;2140108;27;19923;-45
2022/07/05 04:03:54;;;;;;;;;;;;;;;;;;2140674;27;20388;-46
2022/07/05 04:04:55;;;;;;;;;;;;;;;;;;2140791;27;19927;-45
2022/07/05 04:05:56;;;;;;;;;;;;;;;;;;2140579;27;19962;-43
2022/07/05 04:06:57;;;;;;;;;;;;;;;;;;2140879;27;19922;-43
2022/07/05 04:07:58;;;;;;;;;;;;;;;;;;2140505;27;19923;-43
2022/07/05 04:08:58;;;;;;;;;;;;;;;;;;2140932;27;19930;-47
2022/07/05 04:09:59;;;;;;;;;;;;;;;;;;2140519;27;19966;-45
2022/07/05 04:11:00;;;;;;;;;;;;;;;;;;2139259;27;19922;-46
2022/07/05 04:12:01;;;;;;;;;;;;;;;;;;2132174;27;19923;-45
2022/07/05 04:13:02;;;;;;;;;;;;;;;;;;2131856;27;19930;-45
2022/07/05 04:14:03;;;;;;;;;;;;;;;;;;2132193;27;19931;-45
2022/07/05 04:15:04;;;;;;;;;;;;;;;;;;2131911;27;19952;-45
2022/07/05 04:16:05;;;;;;;;;;;;;;;;;;2139758;27;19967;-45
2022/07/05 04:17:06;;;;;;;;;;;;;;;;;;2140379;27;19987;-46
2022/07/05 04:18:08;;;;;;;;;;;;;;;;;;2140764;27;19923;-44
2022/07/05 04:19:09;;;;;;;;;;;;;;;;;;2140458;27;20371;-43
2022/07/05 04:20:10;;;;;;;;;;;;;;;;;;2140392;27;19930;-43
2022/07/05 04:21:14;;;;;;;;;;;;;;;;;;2140844;27;19929;-43
2022/07/05 04:22:15;;;;;;;;;;;;;;;;;;2140608;27;19995;-43
2022/07/05 04:23:15;;;;;;;;;;;;;;;;;;2140439;27;20018;-44
2022/07/05 04:24:17;;;;;;;;;;;;;;;;;;2140457;27;19958;-43
2022/07/05 04:25:17;;;;;;;;;;;;;;;;;;2140363;27;19922;-43
2022/07/05 04:26:18;;;;;;;;;;;;;;;;;;2140201;27;19930;-45
2022/07/05 04:27:19;;;;;;;;;;;;;;;;;;2140394;27;19930;-43
2022/07/05 04:28:20;;;;;;;;;;;;;;;;;;2140385;27;20383;-45
2022/07/05 04:29:21;;;;;;;;;;;;;;;;;;2140734;27;19923;-44
2022/07/05 04:30:22;;;;;;;;;;;;;;;;;;2140849;27;19923;-45
2022/07/05 04:31:23;;;;;;;;;;;;;;;;;;2140333;27;19957;-45
2022/07/05 04:32:24;;;;;;;;;;;;;;;;;;2140488;27;20011;-43
2022/07/05 04:33:25;;;;;;;;;;;;;;;;;;2140296;27;19931;-43
2022/07/05 04:34:26;;;;;;;;;;;;;;;;;;2140450;27;20006;-43
2022/07/05 04:35:26;;;;;;;;;;;;;;;;;;2140237;27;19930;-43
2022/07/05 04:36:27;;;;;;;;;;;;;;;;;;2140408;27;19972;-44
2022/07/05 04:37:28;;;;;;;;;;;;;;;;;;2140307;27;19923;-45
2022/07/05 04:38:29;;;;;;;;;;;;;;;;;;2140354;27;19954;-44
2022/07/05 04:39:30;;;;;;;;;;;;;;;;;;2140455;27;20001;-43
2022/07/05 04:40:31;;;;;;;;;;;;;;;;;;2140496;27;19930;-45
2022/07/05 04:41:31;;;;;;;;;;;;;;;;;;2140246;27;19975;-44
2022/07/05 04:42:32;;;;;;;;;;;;;;;;;;2140151;27;19923;-45
2022/07/05 04:43:34;;;;;;;;;;;;;;;;;;2140481;27;20013;-44
2022/07/05 04:44:35;;;;;;;;;;;;;;;;;;2139794;27;20371;-45
2022/07/05 04:45:35;;;;;;;;;;;;;;;;;;2140431;27;19923;-46
2022/07/05 04:46:36;;;;;;;;;;;;;;;;;;2140294;27;19923;-45
2022/07/05 04:47:37;;;;;;;;;;;;;;;;;;2140341;27;20397;-45
2022/07/05 04:48:38;;;;;;;;;;;;;;;;;;2140208;27;19967;-45
2022/07/05 04:49:39;;;;;;;;;;;;;;;;;;2140345;27;20268;-45
2022/07/05 04:50:40;;;;;;;;;;;;;;;;;;2140274;27;19934;-45
2022/07/05 04:51:41;;;;;;;;;;;;;;;;;;2140331;27;20413;-43
2022/07/05 04:52:47;;;;;;;;;;;;;;;;;;2140678;27;19952;-43
2022/07/05 04:53:48;;;;;;;;;;;;;;;;;;2140152;27;19995;-42
2022/07/05 04:54:49;;;;;;;;;;;;;;;;;;2140408;27;19947;-43
2022/07/05 04:55:50;;;;;;;;;;;;;;;;;;2140221;27;20017;-43
2022/07/05 04:56:51;;;;;;;;;;;;;;;;;;2140332;27;19927;-43
2022/07/05 04:57:51;;;;;;;;;;;;;;;;;;2140295;27;20511;-44
2022/07/05 04:58:52;;;;;;;;;;;;;;;;;;2140323;27;19967;-43
2022/07/05 04:59:53;;;;;;;;;;;;;;;;;;2140222;27;20002;-43
2022/07/05 05:00:54;;;;;;;;;;;;;;;;;;2140477;27;20350;-45
2022/07/05 05:01:55;;;;;;;;;;;;;;;;;;2140323;27;19934;-44
2022/07/05 05:02:56;;;;;;;;;;;;;;;;;;2140058;27;19923;-45
2022/07/05 05:03:57;;;;;;;;;;;;;;;;;;2140229;27;20014;-46
2022/07/05 05:04:58;;;;;;;;;;;;;;;;;;2140172;27;20017;-45
2022/07/05 05:05:58;;;;;;;;;;;;;;;;;;2140025;27;20339;-45
2022/07/05 05:06:59;;;;;;;;;;;;;;;;;;2140163;27;20017;-46
2022/07/05 05:08:00;;;;;;;;;;;;;;;;;;2140179;27;19969;-44
2022/07/05 05:09:01;;;;;;;;;;;;;;;;;;2140131;27;19929;-44
2022/07/05 05:10:02;;;;;;;;;;;;;;;;;;2140248;27;20405;-45
2022/07/05 05:11:03;;;;;;;;;;;;;;;;;;2138950;27;19972;-46
2022/07/05 05:12:04;;;;;;;;;;;;;;;;;;2137233;27;20062;-44
2022/07/05 05:13:05;;;;;;;;;;;;;;;;;;2131840;27;19927;-43
2022/07/05 05:14:06;;;;;;;;;;;;;;;;;;2132505;27;20397;-43
2022/07/05 05:15:08;;;;;;;;;;;;;;;;;;2133050;27;19923;-43
2022/07/05 05:16:08;;;;;;;;;;;;;;;;;;2132907;27;20467;-43
2022/07/05 05:17:10;;;;;;;;;;;;;;;;;;2133196;27;19930;-42
2022/07/05 05:18:10;;;;;;;;;;;;;;;;;;2132961;27;19959;-43
2022/07/05 05:19:11;;;;;;;;;;;;;;;;;;2133161;27;19975;-44
2022/07/05 05:20:12;;;;;;;;;;;;;;;;;;2132989;27;19923;-43
2022/07/05 05:21:13;;;;;;;;;;;;;;;;;;2132917;27;19923;-44
2022/07/05 05:22:14;;;;;;;;;;;;;;;;;;2132968;27;19923;-44
2022/07/05 05:23:15;;;;;;;;;;;;;;;;;;2133001;27;20384;-42
2022/07/05 05:24:16;;;;;;;;;;;;;;;;;;2133027;27;20047;-43
2022/07/05 05:25:17;;;;;;;;;;;;;;;;;;2133346;27;20392;-43
2022/07/05 05:26:17;;;;;;;;;;;;;;;;;;2133058;27;19927;-43
2022/07/05 05:27:18;;;;;;;;;;;;;;;;;;2132828;27;19923;-43
2022/07/05 05:28:19;;;;;;;;;;;;;;;;;;2133065;27;20100;-43
2022/07/05 05:29:20;;;;;;;;;;;;;;;;;;2133154;27;20260;-47
2022/07/05 05:30:21;;;;;;;;;;;;;;;;;;2133188;27;19924;-45
2022/07/05 05:31:22;;;;;;;;;;;;;;;;;;2132749;27;19923;-47
2022/07/05 05:32:23;;;;;;;;;;;;;;;;;;2132959;27;20028;-48
2022/07/05 05:33:24;;;;;;;;;;;;;;;;;;2133122;27;20435;-43
2022/07/05 05:34:28;;;;;;;;;;;;;;;;;;2132903;27;19999;-46
2022/07/05 05:35:29;;;;;;;;;;;;;;;;;;2133136;27;20379;-44
2022/07/05 05:36:30;;;;;;;;;;;;;;;;;;2132980;27;19975;-46
2022/07/05 05:37:30;;;;;;;;;;;;;;;;;;2132909;27;20009;-44
2022/07/05 05:38:31;;;;;;;;;;;;;;;;;;2133118;27;19924;-46
2022/07/05 05:39:32;;;;;;;;;;;;;;;;;;2132925;27;19959;-45
2022/07/05 05:40:33;;;;;;;;;;;;;;;;;;2133044;27;20482;-46
2022/07/05 05:41:35;;;;;;;;;;;;;;;;;;2132832;27;20046;-45
2022/07/05 05:42:36;;;;;;;;;;;;;;;;;;2133013;27;20021;-44
2022/07/05 05:43:37;;;;;;;;;;;;;;;;;;2132850;27;19930;-42
2022/07/05 05:44:38;;;;;;;;;;;;;;;;;;2132859;27;20287;-43
2022/07/05 05:45:39;;;;;;;;;;;;;;;;;;2132877;27;19923;-43
2022/07/05 05:46:39;;;;;;;;;;;;;;;;;;2132771;27;19955;-44
2022/07/05 05:47:41;;;;;;;;;;;;;;;;;;2133107;27;20393;-44
2022/07/05 05:48:41;;;;;;;;;;;;;;;;;;2133090;27;20010;-45
2022/07/05 05:49:42;;;;;;;;;;;;;;;;;;2132801;27;19937;-46
2022/07/05 05:50:43;;;;;;;;;;;;;;;;;;2132737;27;19924;-44
2022/07/05 05:51:45;;;;;;;;;;;;;;;;;;2133034;27;19927;-46
2022/07/05 05:52:45;;;;;;;;;;;;;;;;;;2133024;27;20299;-46
2022/07/05 05:53:46;;;;;;;;;;;;;;;;;;2132996;27;19927;-46
2022/07/05 05:54:47;;;;;;;;;;;;;;;;;;2132846;27;19927;-45
2022/07/05 05:55:48;;;;;;;;;;;;;;;;;;2132943;27;19923;-44
2022/07/05 05:56:49;;;;;;;;;;;;;;;;;;2133067;27;20014;-46
2022/07/05 05:57:50;;;;;;;;;;;;;;;;;;2133121;27;19927;-45
2022/07/05 05:58:50;;;;;;;;;;;;;;;;;;2132888;27;19975;-45
2022/07/05 05:59:51;;;;;;;;;;;;;;;;;;2132871;27;20006;-45
2022/07/05 06:00:52;;;;;;;;;;;;;;;;;;2132753;27;20018;-44
2022/07/05 06:01:53;;;;;;;;;;;;;;;;;;2132842;27;19923;-45
2022/07/05 06:02:54;;;;;;;;;;;;;;;;;;2132700;27;20390;-45
2022/07/05 06:03:55;;;;;;;;;;;;;;;;;;2132602;27;19927;-46
2022/07/05 06:04:56;;;;;;;;;;;;;;;;;;2132929;27;19923;-47
2022/07/05 06:05:57;;;;;;;;;;;;;;;;;;2132831;27;19983;-43
2022/07/05 06:06:58;;;;;;;;;;;;;;;;;;2132747;27;19923;-44
2022/07/05 06:07:59;;;;;;;;;;;;;;;;;;2135505;27;20286;-43
2022/07/05 06:08:59;;;;;;;;;;;;;;;;;;2135391;27;20018;-43
2022/07/05 06:10:00;;;;;;;;;;;;;;;;;;2132677;27;19967;-43
2022/07/05 06:11:04;;;;;;;;;;;;;;;;;;2132535;27;20377;-44
2022/07/05 06:12:05;;;;;;;;;;;;;;;;;;2132620;27;20414;-44
2022/07/05 06:13:06;;;;;;;;;;;;;;;;;;2132720;27;19926;-44
2022/07/05 06:14:06;;;;;;;;;;;;;;;;;;2132856;27;20375;-44
2022/07/05 06:15:07;;;;;;;;;;;;;;;;;;2132604;27;19930;-44
2022/07/05 06:16:08;;;;;;;;;;;;;;;;;;2132569;27;20002;-45
2022/07/05 06:17:09;;;;;;;;;;;;;;;;;;2132589;27;19923;-44
2022/07/05 06:18:10;;;;;;;;;;;;;;;;;;2132792;27;19924;-45
2022/07/05 06:19:11;;;;;;;;;;;;;;;;;;2133097;27;19930;-45
2022/07/05 06:20:12;;;;;;;;;;;;;;;;;;2132739;27;20005;-45
2022/07/05 06:21:13;;;;;;;;;;;;;;;;;;2132576;27;20295;-46
2022/07/05 06:22:13;;;;;;;;;;;;;;;;;;2132698;27;20043;-45
2022/07/05 06:23:15;;;;;;;;;;;;;;;;;;2132573;27;20329;-46
2022/07/05 06:24:15;;;;;;;;;;;;;;;;;;2132551;27;20021;-45
2022/07/05 06:25:16;;;;;;;;;;;;;;;;;;2131924;27;20028;-45
2022/07/05 06:26:23;;;;;;;;;;;;;;;;;;2132804;27;19923;-45
2022/07/05 06:27:24;;;;;;;;;;;;;;;;;;2132701;27;19945;-46
2022/07/05 06:28:29;;;;;;;;;;;;;;;;;;2132476;27;19930;-46
2022/07/05 06:29:29;;;;;;;;;;;;;;;;;;2132585;27;20383;-46
2022/07/05 06:30:30;;;;;;;;;;;;;;;;;;2132567;27;19958;-45
2022/07/05 06:31:31;;;;;;;;;;;;;;;;;;2132470;27;19923;-46
2022/07/05 06:32:32;;;;;;;;;;;;;;;;;;2132513;27;19946;-45
2022/07/05 06:33:33;;;;;;;;;;;;;;;;;;2132659;27;20010;-47
2022/07/05 06:34:34;;;;;;;;;;;;;;;;;;2132493;27;20005;-43
2022/07/05 06:35:38;;;;;;;;;;;;;;;;;;2132635;27;20355;-45
2022/07/05 06:36:38;;;;;;;;;;;;;;;;;;2132374;27;20363;-44
2022/07/05 06:37:39;;;;;;;;;;;;;;;;;;2132401;27;19968;-44
2022/07/05 06:38:40;;;;;;;;;;;;;;;;;;2132912;27;19962;-46
2022/07/05 06:39:41;;;;;;;;;;;;;;;;;;2132408;27;20364;-46
2022/07/05 06:40:43;;;;;;;;;;;;;;;;;;2132429;27;20283;-46
2022/07/05 06:41:44;;;;;;;;;;;;;;;;;;2132348;27;20013;-47
2022/07/05 06:42:45;;;;;;;;;;;;;;;;;;2132768;27;20013;-44
2022/07/05 06:43:46;;;;;;;;;;;;;;;;;;2132391;27;19923;-44
2022/07/05 06:44:47;;;;;;;;;;;;;;;;;;2132432;27;19931;-44
2022/07/05 06:45:48;;;;;;;;;;;;;;;;;;2132535;27;20010;-44
2022/07/05 06:46:49;;;;;;;;;;;;;;;;;;2132663;27;19923;-45
2022/07/05 06:47:50;;;;;;;;;;;;;;;;;;2132766;27;20268;-43
2022/07/05 06:48:51;;;;;;;;;;;;;;;;;;2132379;27;20788;-45
2022/07/05 06:49:54;;;;;;;;;;;;;;;;;;2133006;27;20030;-43
2022/07/05 06:50:56;;;;;;;;;;;;;;;;;;2132278;27;19954;-44
2022/07/05 06:51:56;;;;;;;;;;;;;;;;;;2132692;27;20346;-45
2022/07/05 06:52:57;;;;;;;;;;;;;;;;;;2132351;27;20403;-44
2022/07/05 06:53:58;;;;;;;;;;;;;;;;;;2132505;27;19981;-44
2022/07/05 06:55:19;;;;;;;;;;;;;;;;;;2132313;27;20281;-45
2022/07/05 06:56:20;;;;;;;;;;;;;;;;;;2132492;27;20083;-46
2022/07/05 06:57:21;;;;;;;;;;;;;;;;;;2132610;27;20426;-46
2022/07/05 06:58:30;;;;;;;;;;;;;;;;;;2132369;27;20333;-47
2022/07/05 06:59:31;;;;;;;;;;;;;;;;;;2132400;27;19963;-47